Putney, VT (05346)

8:33 AM EDT on September 29, 2016 (GMT -0400)
Green Mountain Orchard | | Change Station

Elev 715 ft 42.99 °N, 72.54 °W | Updated 10 seconds ago

Clear
Clear
53.3 °F
Feels Like 53.3 °F
N
6.0
Wind Variable Wind from ENE
Gusts 7.0 mph

Today
High -- | Low -- °F
--% Chance of Precip.
Yesterday
High -- | Low -- °F
Precip. -- in
Pressure 30.54 in
Visibility 10.0 miles
Clouds Clear
Dew Point 42 °F
Humidity 67%
Rainfall 0.00 in
Snow Depth Not available.
6:45 AM 6:34 PM
Waning Crescent, 2% visible
METAR KEEN 291156Z AUTO 05007KT 10SM CLR 11/06 A3048 RMK AO2 SLP342 T01060061 10128 20072 53018
Pressure 30.54 in
Visibility 10.0 miles
Clouds Clear
Dew Point 42 °F
Humidity 67%
Rainfall 0.00 in
Snow Depth Not available.
6:45 AM 6:34 PM
Waning Crescent, 2% visible
METAR KEEN 291156Z AUTO 05007KT 10SM CLR 11/06 A3048 RMK AO2 SLP342 T01060061 10128 20072 53018

10-Day Weather Forecast

Almanac

Astronomy

Sep. 29, 2016 Rise Set
Actual Time
Civil Twilight
Nautical Twilight
Astronomical Twilight
Moon
Length of Visible Light
Length of Day
Tomorrow will be .
, % of the Moon is Illuminated

Today's Extremes

State Highs State Lows

Community

WunderPhotos

Upload Photos

1,942,466 photos uploaded!

WunderBlog® & News

Nearby

Air Quality

  Air Quality AQ Index Pollutant
Not available.

Snow Depth

Station Depth Elevation

Earthquake Activity

City Distance Mag. Time & Date
Minimum magnitude displayed is 2.5.

Coastal Water Temperatures

Place Temperature

Stations

Nearby Weather Stations

Station Location Temp. Windchill Dew Point Humidity Wind Precip. Elev Updated Type
                   

Watches & Warnings

There are currently no watches in effect.